Time;durP1;ratioP1;P1;durP2;ratioP2;P2;SDS_P1;SDS_P2;PMS_P1;PMS_P2;Temp;Humidity;BMP_temperature;BMP_pressure;BME280_temperature;BME280_humidity;BME280_pressure;Samples;Min_cycle;Max_cycle;Signal;HPM_P1;HPM_P2
2022/10/20 00:01:07;;;;;;;24.30;21.88;;;;;;;14.60;58.43;95381.25;5082685;28;20189;-66
2022/10/20 00:03:33;;;;;;;21.55;19.55;;;;;;;14.50;58.70;95386.66;5083855;28;20180;-66
2022/10/20 00:06:10;;;;;;;22.13;19.98;;;;;;;14.42;58.68;95384.84;5084738;28;20184;-65
2022/10/20 00:08:36;;;;;;;21.63;19.73;;;;;;;14.40;58.83;95384.19;5090565;28;20184;-66
2022/10/20 00:11:02;;;;;;;22.10;20.13;;;;;;;14.52;58.51;95393.47;5087542;28;20229;-65
2022/10/20 00:13:27;;;;;;;21.23;19.23;;;;;;;14.43;57.90;95385.66;5084435;28;20188;-67
2022/10/20 00:15:54;;;;;;;21.25;19.42;;;;;;;14.40;58.45;95383.38;5083134;28;20191;-66
2022/10/20 00:18:21;;;;;;;20.05;18.25;;;;;;;14.42;57.96;95379.56;5085444;28;20200;-67
2022/10/20 00:20:46;;;;;;;20.50;18.58;;;;;;;14.43;57.37;95394.44;5084944;28;20199;-66
2022/10/20 00:23:11;;;;;;;19.13;17.52;;;;;;;14.36;57.28;95384.72;5082039;28;20185;-66
2022/10/20 00:25:37;;;;;;;19.70;17.98;;;;;;;14.43;56.99;95385.66;5085230;28;20247;-66
2022/10/20 00:28:03;;;;;;;19.02;17.33;;;;;;;14.39;56.85;95392.31;5081357;28;20207;-67
2022/10/20 00:30:28;;;;;;;17.35;15.60;;;;;;;14.35;56.62;95378.56;5080617;28;20214;-66
2022/10/20 00:32:54;;;;;;;17.58;15.90;;;;;;;14.52;56.06;95396.13;5082276;28;20224;-67
2022/10/20 00:35:19;;;;;;;17.20;15.50;;;;;;;14.42;55.41;95373.44;5089171;28;20261;-66
2022/10/20 00:37:45;;;;;;;16.88;15.27;;;;;;;14.34;55.93;95374.28;5081397;28;20267;-67
2022/10/20 00:40:11;;;;;;;15.95;14.43;;;;;;;14.35;55.40;95373.28;5077735;28;20291;-67
2022/10/20 00:42:37;;;;;;;15.95;14.43;;;;;;;14.36;55.57;95377.59;5081435;28;20181;-66
2022/10/20 00:45:03;;;;;;;15.82;14.13;;;;;;;14.33;55.23;95368.16;5084533;28;20187;-66
2022/10/20 00:47:43;;;;;;;13.77;12.65;;;;;;;14.28;55.09;95367.00;5083624;28;20272;-66
2022/10/20 00:50:18;;;;;;;13.80;12.30;;;;;;;14.11;55.17;95360.88;5088215;28;20180;-66
2022/10/20 00:52:45;;;;;;;14.35;13.10;;;;;;;14.13;55.06;95367.66;5089207;28;20500;-66
2022/10/20 00:55:14;;;;;;;14.13;12.77;;;;;;;14.21;54.43;95366.84;5084751;28;20207;-66
2022/10/20 00:57:43;;;;;;;15.10;13.00;;;;;;;14.08;54.57;95355.91;5084069;28;20185;-66
2022/10/20 01:00:10;;;;;;;12.98;11.85;;;;;;;14.05;54.16;95350.97;5079414;28;20212;-66
2022/10/20 01:02:35;;;;;;;12.32;11.23;;;;;;;14.02;54.44;95357.41;5081956;28;20214;-67
2022/10/20 01:05:01;;;;;;;12.90;11.60;;;;;;;14.15;53.88;95367.50;5087703;28;20180;-67
2022/10/20 01:07:27;;;;;;;12.52;11.45;;;;;;;14.10;53.80;95359.25;5078785;28;20185;-66
2022/10/20 01:09:52;;;;;;;12.35;11.10;;;;;;;14.08;53.69;95367.31;5079655;28;20280;-67
2022/10/20 01:12:21;;;;;;;11.60;10.48;;;;;;;14.18;53.26;95364.53;5081409;28;20204;-67
2022/10/20 01:15:07;;;;;;;12.00;10.13;;;;;;;14.23;52.87;95374.63;5082705;28;20193;-67
2022/10/20 01:17:32;;;;;;;11.20;10.20;;;;;;;14.11;53.16;95371.47;5078238;28;20184;-67
2022/10/20 01:20:01;;;;;;;12.68;10.30;;;;;;;14.08;52.58;95371.78;5087055;28;20196;-67
2022/10/20 01:22:36;;;;;;;10.57;9.68;;;;;;;14.11;52.28;95371.47;5085409;28;20184;-67
2022/10/20 01:25:49;;;;;;;10.10;9.15;;;;;;;14.09;52.33;95374.28;5082780;28;20208;-67
2022/10/20 01:28:20;;;;;;;12.40;9.52;;;;;;;14.03;52.27;95369.66;5026559;28;20257;-67
2022/10/20 01:30:50;;;;;;;10.15;9.25;;;;;;;13.99;52.36;95364.84;5045587;28;20213;-67
2022/10/20 01:33:38;;;;;;;11.00;9.85;;;;;;;14.07;52.55;95375.44;5037540;28;20264;-67
2022/10/20 01:36:17;;;;;;;10.15;9.10;;;;;;;14.01;52.40;95369.00;5007243;28;20214;-67
2022/10/20 01:39:18;;;;;;;9.75;8.85;;;;;;;14.04;52.35;95373.94;5007747;28;20215;-67
2022/10/20 01:41:53;;;;;;;9.98;9.07;;;;;;;14.00;52.51;95369.16;5005363;28;20213;-67
2022/10/20 01:44:22;;;;;;;9.85;8.95;;;;;;;14.00;52.60;95363.84;5006013;28;20197;-67
2022/10/20 01:46:48;;;;;;;10.02;9.10;;;;;;;14.03;52.39;95356.44;4994237;28;20226;-67
2022/10/20 01:49:14;;;;;;;10.50;9.45;;;;;;;13.96;52.90;95371.28;5008932;28;20298;-67
2022/10/20 01:51:39;;;;;;;10.07;9.07;;;;;;;13.93;52.89;95370.81;4985839;28;20198;-66
2022/10/20 01:54:05;;;;;;;10.32;9.32;;;;;;;13.80;53.15;95369.47;4990436;28;20198;-66
2022/10/20 01:56:58;;;;;;;10.02;8.95;;;;;;;13.65;53.71;95371.91;5007926;28;20234;-66
2022/10/20 01:59:26;;;;;;;9.75;8.95;;;;;;;13.61;53.76;95372.41;5005369;28;20214;-66
2022/10/20 02:02:16;;;;;;;10.48;9.45;;;;;;;13.61;53.99;95380.31;5013969;28;20193;-66
2022/10/20 02:04:57;;;;;;;10.68;9.60;;;;;;;13.55;54.42;95387.09;5012549;28;20205;-68
2022/10/20 02:07:27;;;;;;;10.15;9.27;;;;;;;13.43;54.91;95388.34;5016549;28;20194;-67
2022/10/20 02:09:59;;;;;;;10.05;9.15;;;;;;;13.31;55.01;95374.63;5016144;28;20330;-67
2022/10/20 02:12:28;;;;;;;12.38;9.90;;;;;;;13.16;55.67;95371.72;5023468;28;20222;-67
2022/10/20 02:14:54;;;;;;;11.07;10.07;;;;;;;13.14;55.81;95381.59;5050818;28;20186;-66
2022/10/20 02:17:20;;;;;;;10.98;10.00;;;;;;;13.07;56.13;95383.25;5056185;28;20196;-66
2022/10/20 02:19:49;;;;;;;12.05;10.75;;;;;;;12.99;56.33;95386.66;5088675;28;20214;-67
2022/10/20 02:22:15;;;;;;;11.10;10.07;;;;;;;13.03;56.51;95388.00;5083680;28;20177;-68
2022/10/20 02:24:43;;;;;;;11.80;10.60;;;;;;;12.96;56.90;95394.91;5087539;28;20192;-66
2022/10/20 02:27:18;;;;;;;11.65;10.65;;;;;;;12.83;57.50;95406.84;5086770;28;20193;-67
2022/10/20 02:29:49;;;;;;;11.25;10.20;;;;;;;12.88;57.19;95394.00;5090750;28;20356;-67
2022/10/20 02:32:16;;;;;;;11.43;10.32;;;;;;;12.85;57.15;95389.06;5080506;28;20180;-67
2022/10/20 02:34:42;;;;;;;11.48;10.38;;;;;;;12.89;57.09;95399.16;5085264;28;20312;-67
2022/10/20 02:37:07;;;;;;;11.00;9.93;;;;;;;12.69;57.56;95392.41;5087066;28;20325;-66
2022/10/20 02:39:33;;;;;;;11.82;10.68;;;;;;;12.73;57.43;95402.53;5090500;28;20218;-66
2022/10/20 02:41:58;;;;;;;12.00;10.90;;;;;;;12.72;57.43;95400.03;5084139;28;20219;-67
2022/10/20 02:44:24;;;;;;;10.85;9.85;;;;;;;12.65;57.47;95407.75;5090375;28;20196;-66
2022/10/20 02:46:49;;;;;;;11.25;10.18;;;;;;;12.65;57.58;95415.66;5082266;28;20208;-67
2022/10/20 02:49:14;;;;;;;12.05;10.85;;;;;;;12.58;57.79;95417.25;5088976;28;20176;-66
2022/10/20 02:51:40;;;;;;;11.00;9.90;;;;;;;12.56;57.83;95411.28;5081788;28;20188;-66
2022/10/20 02:54:05;;;;;;;11.13;10.13;;;;;;;12.60;57.36;95412.66;5091021;28;20188;-66
2022/10/20 02:56:31;;;;;;;12.48;10.90;;;;;;;12.67;57.06;95404.94;5091430;28;20184;-65
2022/10/20 02:58:56;;;;;;;11.40;10.40;;;;;;;12.60;57.60;95417.09;5083154;28;20204;-66
2022/10/20 03:01:23;;;;;;;12.25;11.18;;;;;;;12.60;57.52;95425.84;5082628;28;20189;-65
2022/10/20 03:03:49;;;;;;;11.82;10.70;;;;;;;12.53;57.54;95404.50;5083217;28;20238;-65
2022/10/20 03:06:15;;;;;;;12.57;11.38;;;;;;;12.55;57.71;95414.91;5088417;28;20192;-65
2022/10/20 03:08:41;;;;;;;12.05;11.05;;;;;;;12.38;58.08;95413.97;5086016;28;20172;-65
2022/10/20 03:11:07;;;;;;;11.93;10.85;;;;;;;12.41;57.87;95416.31;5089483;28;20219;-65
2022/10/20 03:13:33;;;;;;;11.95;10.50;;;;;;;12.38;58.26;95408.72;5083531;28;20188;-66
2022/10/20 03:15:59;;;;;;;11.57;10.48;;;;;;;12.40;58.38;95438.38;5081974;28;20200;-65
2022/10/20 03:18:24;;;;;;;12.35;11.25;;;;;;;12.40;58.40;95427.81;5087364;28;20296;-65
2022/10/20 03:20:51;;;;;;;12.18;10.88;;;;;;;12.32;58.64;95420.69;5087800;28;20194;-65
2022/10/20 03:23:16;;;;;;;11.75;10.55;;;;;;;12.36;58.55;95426.50;5085972;28;20194;-66
2022/10/20 03:25:42;;;;;;;12.10;10.98;;;;;;;12.21;58.91;95423.53;5086922;28;20274;-66
2022/10/20 03:28:07;;;;;;;11.13;10.13;;;;;;;12.19;59.13;95433.44;5089122;28;20195;-65
2022/10/20 03:30:33;;;;;;;13.00;11.48;;;;;;;12.20;59.08;95432.44;5087675;28;20266;-65
2022/10/20 03:32:58;;;;;;;11.85;10.77;;;;;;;12.20;59.22;95427.19;5082519;28;20244;-64
2022/10/20 03:35:24;;;;;;;12.18;10.90;;;;;;;12.13;59.18;95428.75;5084766;28;20231;-64
2022/10/20 03:37:49;;;;;;;11.48;10.35;;;;;;;12.14;59.19;95435.69;5080092;28;20199;-64
2022/10/20 03:40:15;;;;;;;14.20;11.07;;;;;;;12.22;59.38;95440.22;5081119;28;20719;-64
2022/10/20 03:42:40;;;;;;;12.35;11.05;;;;;;;12.11;59.27;95431.56;5083925;28;20184;-65
2022/10/20 03:45:06;;;;;;;12.70;11.10;;;;;;;12.17;59.14;95442.47;5083216;28;20192;-64
2022/10/20 03:47:32;;;;;;;11.93;10.65;;;;;;;12.15;59.43;95450.53;5087476;28;20184;-64
2022/10/20 03:49:57;;;;;;;11.23;10.05;;;;;;;12.09;59.39;95451.13;5078041;28;20188;-65
2022/10/20 03:52:23;;;;;;;12.88;11.57;;;;;;;12.07;59.54;95453.91;5091350;28;20195;-65
2022/10/20 03:54:48;;;;;;;13.25;11.50;;;;;;;12.03;59.72;95451.72;5090885;28;20302;-65
2022/10/20 03:57:13;;;;;;;12.50;11.30;;;;;;;12.06;59.69;95462.81;5084654;28;20237;-65
2022/10/20 03:59:39;;;;;;;12.90;11.35;;;;;;;12.05;59.63;95450.59;5085484;28;20360;-65
2022/10/20 04:02:04;;;;;;;11.32;10.23;;;;;;;11.94;60.00;95448.19;5088018;28;20185;-65
2022/10/20 04:04:30;;;;;;;12.38;11.25;;;;;;;11.89;60.13;95450.44;5083385;28;20531;-66
2022/10/20 04:07:23;;;;;;;14.05;12.65;;;;;;;11.98;60.29;95454.00;5085031;28;20176;-65
2022/10/20 04:09:48;;;;;;;13.98;11.30;;;;;;;11.92;60.23;95444.84;5099143;28;20283;-64
2022/10/20 04:12:14;;;;;;;12.80;11.38;;;;;;;11.89;60.37;95445.16;5082508;28;20191;-64
2022/10/20 04:14:40;;;;;;;12.15;11.05;;;;;;;11.81;60.71;95429.22;5100836;28;20241;-64
2022/10/20 04:17:05;;;;;;;12.82;11.63;;;;;;;11.80;61.00;95436.31;5084668;28;20185;-64
2022/10/20 04:19:31;;;;;;;12.68;11.45;;;;;;;11.82;60.92;95442.28;5084486;28;20208;-65
2022/10/20 04:21:56;;;;;;;13.10;11.65;;;;;;;11.76;61.22;95440.25;5086964;28;20183;-64
2022/10/20 04:24:22;;;;;;;12.70;11.60;;;;;;;11.78;61.30;95453.25;5079476;28;20262;-64
2022/10/20 04:26:47;;;;;;;12.60;11.25;;;;;;;11.79;61.39;95466.28;5080924;28;20180;-64
2022/10/20 04:29:13;;;;;;;12.68;11.57;;;;;;;11.69;61.52;95447.91;5083619;28;20215;-64
2022/10/20 04:31:38;;;;;;;12.82;11.65;;;;;;;11.69;61.61;95457.59;5085320;28;20184;-64
2022/10/20 04:34:04;;;;;;;13.75;11.77;;;;;;;11.75;61.86;95464.91;5081261;28;20257;-66
2022/10/20 04:36:29;;;;;;;11.73;10.73;;;;;;;11.66;61.54;95455.28;5081740;28;20188;-64
2022/10/20 04:38:55;;;;;;;12.35;11.00;;;;;;;11.65;61.98;95456.22;5080403;28;20201;-64
2022/10/20 04:41:20;;;;;;;12.48;11.38;;;;;;;11.71;61.61;95460.94;5087154;28;20237;-65
2022/10/20 04:43:50;;;;;;;12.32;11.15;;;;;;;11.71;61.74;95466.19;5082574;28;20192;-65
2022/10/20 04:46:15;;;;;;;12.60;11.38;;;;;;;11.68;61.69;95469.97;5082571;28;20196;-64
2022/10/20 04:48:43;;;;;;;12.52;11.43;;;;;;;11.68;61.59;95474.38;5082524;28;20313;-65
2022/10/20 04:51:11;;;;;;;12.25;11.00;;;;;;;11.66;61.92;95476.34;5089498;28;20194;-65
2022/10/20 04:53:37;;;;;;;12.48;11.15;;;;;;;11.77;61.37;95477.94;5082516;28;20210;-64
2022/10/20 04:56:05;;;;;;;12.07;10.95;;;;;;;11.74;61.50;95476.44;5083558;28;20204;-65
2022/10/20 04:58:31;;;;;;;11.98;10.60;;;;;;;11.74;61.29;95468.53;5083132;28;20204;-64
2022/10/20 05:01:02;;;;;;;12.55;11.25;;;;;;;11.72;61.37;95481.03;5084246;28;20193;-65
2022/10/20 05:03:27;;;;;;;12.13;10.93;;;;;;;11.67;61.48;95478.00;5077863;28;20196;-64
2022/10/20 05:05:53;;;;;;;11.95;10.88;;;;;;;11.73;61.43;95489.75;5084976;28;20180;-65
2022/10/20 05:08:18;;;;;;;13.63;11.40;;;;;;;11.75;61.36;95493.06;5085596;28;20183;-64
2022/10/20 05:10:44;;;;;;;13.50;10.93;;;;;;;11.72;61.21;95488.91;5082740;28;20267;-64
2022/10/20 05:13:09;;;;;;;12.48;11.25;;;;;;;11.70;61.35;95489.06;5087321;28;20200;-65
2022/10/20 05:15:35;;;;;;;13.68;11.63;;;;;;;11.68;61.71;95496.31;5089459;28;20207;-64
2022/10/20 05:18:00;;;;;;;12.70;11.50;;;;;;;11.60;62.34;95490.09;5085468;28;20199;-64
2022/10/20 05:20:26;;;;;;;12.98;11.30;;;;;;;11.67;61.73;95493.78;5080217;28;20204;-65
2022/10/20 05:22:51;;;;;;;13.02;11.70;;;;;;;11.68;61.92;95513.88;5088150;28;20180;-64
2022/10/20 05:25:16;;;;;;;12.23;11.10;;;;;;;11.69;62.01;95502.38;5084093;28;20222;-59
2022/10/20 05:27:42;;;;;;;15.85;10.90;;;;;;;11.77;61.82;95510.38;5095583;28;20188;-61
2022/10/20 05:30:08;;;;;;;12.63;10.88;;;;;;;11.82;61.46;95517.84;5086782;28;20184;-63
2022/10/20 05:32:33;;;;;;;11.70;10.48;;;;;;;11.68;61.51;95508.63;5079145;28;20227;-63
2022/10/20 05:34:59;;;;;;;11.15;10.00;;;;;;;11.78;61.08;95517.31;5082946;28;20647;-63
2022/10/20 05:37:24;;;;;;;11.75;10.55;;;;;;;11.82;60.87;95523.13;5088812;28;20241;-62
2022/10/20 05:39:50;;;;;;;12.35;11.05;;;;;;;11.82;60.71;95523.13;5082423;28;20250;-63
2022/10/20 05:42:15;;;;;;;11.25;10.35;;;;;;;11.85;60.96;95528.09;5083089;28;20187;-62
2022/10/20 05:44:40;;;;;;;11.60;10.50;;;;;;;11.89;60.89;95543.50;5085746;28;20184;-62
2022/10/20 05:47:06;;;;;;;13.57;10.70;;;;;;;11.87;60.99;95542.81;5079313;28;20192;-62
2022/10/20 05:49:31;;;;;;;12.02;10.88;;;;;;;11.88;61.00;95541.00;5082483;28;20266;-63
2022/10/20 05:51:57;;;;;;;14.35;11.10;;;;;;;12.00;60.82;95560.06;5079703;28;20187;-62
2022/10/20 05:54:22;;;;;;;13.40;11.73;;;;;;;11.91;61.41;95575.78;5087737;28;20184;-62
2022/10/20 05:56:48;;;;;;;15.27;11.85;;;;;;;11.91;61.81;95570.53;5077908;28;20224;-62
2022/10/20 05:59:13;;;;;;;13.23;11.85;;;;;;;12.01;61.30;95572.28;5084297;28;20226;-62
2022/10/20 06:01:48;;;;;;;14.07;12.32;;;;;;;12.04;61.62;95578.09;5085130;28;20180;-62
2022/10/20 06:04:22;;;;;;;13.57;12.25;;;;;;;12.13;61.52;95584.28;5087439;28;20203;-62
2022/10/20 06:06:48;;;;;;;13.07;11.80;;;;;;;12.12;61.42;95582.63;5084196;28;20192;-63
2022/10/20 06:09:13;;;;;;;14.23;12.73;;;;;;;12.01;61.76;95588.94;5072688;28;20196;-63
2022/10/20 06:11:39;;;;;;;13.65;12.23;;;;;;;12.08;61.68;95597.94;5083381;28;20236;-63
2022/10/20 06:14:04;;;;;;;14.10;11.82;;;;;;;12.14;61.67;95607.88;5081521;28;20391;-62
2022/10/20 06:16:31;;;;;;;13.93;12.50;;;;;;;12.23;61.34;95598.25;5077604;28;20203;-66
2022/10/20 06:18:58;;;;;;;14.90;13.35;;;;;;;12.17;61.55;95593.56;5087049;28;20199;-68
2022/10/20 06:21:26;;;;;;;15.02;13.43;;;;;;;12.28;61.35;95593.34;5082107;28;20321;-65
2022/10/20 06:23:51;;;;;;;15.70;13.93;;;;;;;12.28;61.56;95603.09;5083645;28;20184;-63
2022/10/20 06:26:20;;;;;;;16.95;14.48;;;;;;;12.28;61.68;95600.44;5081619;28;20184;-66
2022/10/20 06:28:48;;;;;;;14.65;13.18;;;;;;;12.19;61.97;95607.44;5077170;28;20189;-63
2022/10/20 06:31:18;;;;;;;14.68;13.25;;;;;;;12.27;61.86;95607.53;5082662;28;20485;-67
2022/10/20 06:33:44;;;;;;;19.25;14.50;;;;;;;12.36;61.70;95611.91;5096654;28;20232;-68
2022/10/20 06:36:11;;;;;;;15.65;14.20;;;;;;;12.42;61.64;95622.84;5087025;28;20195;-67
2022/10/20 06:38:37;;;;;;;16.90;15.10;;;;;;;12.45;61.75;95623.38;5082922;28;20204;-67
2022/10/20 06:41:09;;;;;;;15.85;14.27;;;;;;;12.53;61.81;95627.91;5084394;28;20213;-67
2022/10/20 06:43:35;;;;;;;15.63;14.18;;;;;;;12.60;61.24;95623.69;5087435;28;20195;-64
2022/10/20 06:46:05;;;;;;;15.60;13.88;;;;;;;12.70;60.92;95621.84;5085906;28;20188;-64
2022/10/20 06:48:31;;;;;;;17.17;14.32;;;;;;;12.82;60.36;95622.44;5085210;28;20199;-64
2022/10/20 06:51:03;;;;;;;16.30;14.55;;;;;;;12.80;60.32;95635.78;5086094;28;20189;-65
2022/10/20 06:53:30;;;;;;;16.20;14.70;;;;;;;12.72;60.24;95635.72;5090987;28;20184;-65
2022/10/20 06:56:01;;;;;;;15.75;14.25;;;;;;;12.50;60.79;95628.22;5086522;28;20258;-65
2022/10/20 06:58:27;;;;;;;14.20;12.90;;;;;;;12.61;61.05;95640.34;5088619;28;20252;-65
2022/10/20 07:01:05;;;;;;;16.23;14.70;;;;;;;12.74;60.28;95625.81;5083992;28;20619;-65
2022/10/20 07:03:33;;;;;;;18.15;14.27;;;;;;;12.78;60.26;95634.28;5084452;28;20212;-64
2022/10/20 07:05:59;;;;;;;17.30;14.30;;;;;;;12.93;60.14;95630.13;5096132;28;20624;-63
2022/10/20 07:08:27;;;;;;;22.80;14.15;;;;;;;13.03;59.85;95640.59;5083857;28;20200;-64
2022/10/20 07:11:07;;;;;;;17.05;13.98;;;;;;;13.10;59.79;95644.31;5082038;28;20192;-66
2022/10/20 07:13:35;;;;;;;15.18;13.45;;;;;;;13.11;59.32;95634.56;5089549;28;20244;-68
2022/10/20 07:16:01;;;;;;;14.30;12.90;;;;;;;13.13;58.72;95629.97;5088387;28;20188;-68
2022/10/20 07:18:28;;;;;;;14.07;12.68;;;;;;;13.19;58.74;95638.09;5088737;28;20267;-67
2022/10/20 07:21:02;;;;;;;14.13;12.75;;;;;;;13.34;58.48;95640.22;5082923;28;20185;-69
2022/10/20 07:23:29;;;;;;;15.43;12.32;;;;;;;13.37;57.89;95634.66;5089702;28;20596;-69
2022/10/20 07:26:00;;;;;;;13.60;12.40;;;;;;;13.41;57.57;95631.53;5087327;28;20184;-67
2022/10/20 07:28:26;;;;;;;12.82;11.73;;;;;;;13.45;57.23;95629.44;5084595;28;20257;-67
2022/10/20 07:30:51;;;;;;;13.50;12.20;;;;;;;13.56;56.89;95637.09;5087669;28;20225;-68
2022/10/20 07:33:16;;;;;;;14.02;12.15;;;;;;;13.51;57.13;95636.72;5084752;28;20366;-66
2022/10/20 07:35:42;;;;;;;14.60;12.55;;;;;;;13.56;56.77;95629.16;5081455;28;20213;-68
2022/10/20 07:38:07;;;;;;;13.73;12.27;;;;;;;13.71;56.45;95637.34;5084124;28;20184;-66
2022/10/20 07:40:33;;;;;;;14.45;11.98;;;;;;;13.78;56.43;95635.75;5088398;28;20197;-67
2022/10/20 07:42:58;;;;;;;13.50;11.85;;;;;;;13.78;55.82;95632.28;5087316;28;20321;-65
2022/10/20 07:45:23;;;;;;;14.90;12.30;;;;;;;13.78;55.58;95629.63;5090784;28;20180;-65
2022/10/20 07:47:49;;;;;;;16.88;11.95;;;;;;;13.80;55.84;95631.13;5085755;28;20189;-66
2022/10/20 07:50:15;;;;;;;13.80;12.40;;;;;;;13.94;55.53;95629.72;5083654;28;20180;-66
2022/10/20 07:52:40;;;;;;;17.25;12.38;;;;;;;13.78;55.64;95630.44;5082342;28;20185;-65
2022/10/20 07:55:06;;;;;;;16.15;13.25;;;;;;;13.80;55.70;95625.03;5087755;28;20230;-65
2022/10/20 07:57:31;;;;;;;13.13;11.85;;;;;;;13.82;55.36;95623.03;5086891;28;20208;-66
2022/10/20 07:59:57;;;;;;;12.75;11.55;;;;;;;13.77;55.50;95612.94;5079378;28;20200;-66
2022/10/20 08:02:22;;;;;;;13.10;11.45;;;;;;;13.88;55.05;95617.97;5085453;28;20184;-67
2022/10/20 08:04:49;;;;;;;13.68;12.27;;;;;;;13.92;54.74;95622.94;5084531;28;20263;-64
2022/10/20 08:07:15;;;;;;;12.90;11.80;;;;;;;13.79;54.78;95616.28;5086853;28;20180;-64
2022/10/20 08:09:40;;;;;;;11.23;10.23;;;;;;;13.83;54.61;95614.13;5079279;28;20234;-65
2022/10/20 08:12:06;;;;;;;13.52;12.10;;;;;;;13.92;54.30;95620.28;5089108;28;20196;-65
2022/10/20 08:14:32;;;;;;;11.88;10.85;;;;;;;13.90;53.94;95623.91;5078149;28;20198;-68
2022/10/20 08:16:59;;;;;;;12.23;11.10;;;;;;;13.85;53.71;95620.09;5099227;28;20184;-68
2022/10/20 08:19:25;;;;;;;11.65;10.57;;;;;;;13.97;53.82;95626.75;5088648;28;20261;-68
2022/10/20 08:21:50;;;;;;;11.57;10.38;;;;;;;14.08;53.07;95629.13;5083349;28;20189;-68
2022/10/20 08:24:16;;;;;;;10.30;9.25;;;;;;;13.99;53.71;95616.03;5088796;28;20208;-67
2022/10/20 08:26:41;;;;;;;14.30;10.98;;;;;;;14.02;53.16;95616.53;5086495;28;20185;-68
2022/10/20 08:29:08;;;;;;;11.70;10.60;;;;;;;14.24;52.86;95622.25;5080445;28;20180;-65
2022/10/20 08:31:34;;;;;;;11.25;10.02;;;;;;;14.20;51.97;95619.09;5081018;28;20177;-67
2022/10/20 08:33:59;;;;;;;10.77;9.10;;;;;;;14.25;51.50;95629.22;5083675;28;20281;-67
2022/10/20 08:36:26;;;;;;;10.40;9.30;;;;;;;14.28;51.61;95616.47;5078631;28;20184;-68
2022/10/20 08:38:53;;;;;;;10.50;9.50;;;;;;;14.43;50.62;95608.75;5079690;28;20273;-67
2022/10/20 08:41:25;;;;;;;9.45;8.38;;;;;;;14.59;50.06;95609.81;5086369;28;20180;-67
2022/10/20 08:43:54;;;;;;;8.93;8.02;;;;;;;14.68;49.83;95616.81;5078850;28;20181;-68
2022/10/20 08:46:26;;;;;;;8.95;8.05;;;;;;;14.60;49.34;95611.50;5088068;28;20272;-66
2022/10/20 08:48:51;;;;;;;8.45;7.50;;;;;;;14.71;49.21;95612.00;5086462;28;20184;-69
2022/10/20 08:51:20;;;;;;;9.45;6.80;;;;;;;14.75;48.71;95613.34;5080703;28;20185;-64
2022/10/20 08:53:48;;;;;;;9.70;7.05;;;;;;;14.69;49.03;95607.84;5084194;28;20184;-67
2022/10/20 08:56:14;;;;;;;8.80;7.65;;;;;;;14.86;48.27;95601.63;5083021;28;20193;-71
2022/10/20 08:58:42;;;;;;;7.80;6.88;;;;;;;15.03;47.74;95598.97;5080539;28;20353;-71
2022/10/20 09:01:18;;;;;;;7.35;6.72;;;;;;;15.16;47.56;95599.31;5076981;28;20198;-71
2022/10/20 09:03:44;;;;;;;7.47;6.88;;;;;;;15.31;47.13;95605.56;5087037;28;20184;-71
2022/10/20 09:06:14;;;;;;;8.88;6.68;;;;;;;15.31;46.56;95607.41;5083326;28;20181;-69
2022/10/20 09:08:42;;;;;;;7.32;6.63;;;;;;;15.27;46.13;95604.28;5084611;28;20313;-67
2022/10/20 09:11:14;;;;;;;7.35;6.75;;;;;;;15.38;46.04;95608.41;5082809;28;20184;-67
2022/10/20 09:13:39;;;;;;;7.38;6.20;;;;;;;15.52;45.07;95610.38;5085267;28;20187;-66
2022/10/20 09:16:36;;;;;;;7.07;6.38;;;;;;;15.51;45.40;95616.66;5082379;28;20306;-67
2022/10/20 09:19:04;;;;;;;9.23;6.30;;;;;;;15.55;45.17;95620.63;5087186;28;20200;-67
2022/10/20 09:21:33;;;;;;;9.52;6.80;;;;;;;15.61;44.04;95619.97;5084888;28;20277;-67
2022/10/20 09:24:04;;;;;;;6.38;5.07;;;;;;;15.59;43.69;95618.50;5081942;28;20180;-66
2022/10/20 09:26:41;;;;;;;5.85;5.15;;;;;;;15.60;43.70;95617.47;5084960;28;20184;-66
2022/10/20 09:29:09;;;;;;;7.25;5.22;;;;;;;15.73;43.52;95622.31;5081085;28;20200;-66
2022/10/20 09:31:36;;;;;;;5.25;4.75;;;;;;;15.78;42.44;95625.28;5078492;28;20255;-66
2022/10/20 09:34:18;;;;;;;7.22;4.82;;;;;;;15.78;42.23;95618.16;5084567;28;20246;-66
2022/10/20 09:36:44;;;;;;;5.55;4.32;;;;;;;15.78;41.83;95617.31;5062091;28;20192;-68
2022/10/20 09:39:22;;;;;;;4.90;4.43;;;;;;;15.83;41.81;95613.16;5081412;28;20231;-66
2022/10/20 09:41:49;;;;;;;5.05;4.18;;;;;;;15.85;41.51;95610.31;5081628;28;20177;-67
2022/10/20 09:44:22;;;;;;;4.68;4.18;;;;;;;15.97;41.52;95608.16;5087219;28;20184;-65
2022/10/20 09:46:50;;;;;;;4.57;4.18;;;;;;;16.20;41.09;95611.72;5081264;28;20279;-65
2022/10/20 09:49:37;;;;;;;4.20;3.80;;;;;;;16.08;40.13;95613.91;5070196;28;20322;-66
2022/10/20 09:52:16;;;;;;;6.00;3.92;;;;;;;16.02;40.22;95604.00;5080821;28;20230;-65
2022/10/20 09:54:46;;;;;;;4.45;4.10;;;;;;;16.16;39.75;95605.09;5089117;28;20184;-65
2022/10/20 09:57:17;;;;;;;4.22;3.88;;;;;;;16.23;39.73;95606.06;5082685;28;20192;-65
2022/10/20 09:59:49;;;;;;;4.68;4.22;;;;;;;16.43;38.95;95603.81;5085920;28;20200;-65
2022/10/20 10:02:15;;;;;;;5.65;3.28;;;;;;;16.54;38.10;95600.78;5083993;28;20185;-65
2022/10/20 10:04:43;;;;;;;3.97;3.53;;;;;;;16.76;37.94;95588.53;5084009;28;20189;-65
2022/10/20 10:07:21;;;;;;;5.07;3.55;;;;;;;16.79;38.12;95600.66;5083659;28;20194;-64
2022/10/20 10:10:20;;;;;;;4.03;3.60;;;;;;;16.77;38.11;95600.00;5085173;28;20184;-65
2022/10/20 10:12:54;;;;;;;4.07;3.78;;;;;;;16.89;37.27;95588.00;5078748;28;20187;-65
2022/10/20 10:15:27;;;;;;;5.28;3.40;;;;;;;16.94;37.75;95590.09;5078414;28;20188;-65
2022/10/20 10:17:54;;;;;;;3.95;3.58;;;;;;;17.10;37.18;95579.34;5077971;28;20210;-65
2022/10/20 10:20:36;;;;;;;5.82;3.95;;;;;;;17.16;36.83;95583.13;5076799;28;20204;-65
2022/10/20 10:23:30;;;;;;;3.83;3.53;;;;;;;17.28;36.39;95575.56;5083923;28;20208;-65
2022/10/20 10:25:55;;;;;;;3.97;3.20;;;;;;;17.40;36.26;95584.72;5081979;28;20188;-65
2022/10/20 10:28:29;;;;;;;3.72;3.40;;;;;;;17.52;35.79;95580.66;5085423;28;20218;-69
2022/10/20 10:31:17;;;;;;;3.42;3.13;;;;;;;17.49;35.97;95572.22;5087261;28;20189;-65
2022/10/20 10:33:42;;;;;;;5.93;3.42;;;;;;;17.52;35.96;95570.00;5088974;28;20220;-64
2022/10/20 10:36:28;;;;;;;3.45;3.20;;;;;;;17.59;35.54;95576.28;5090051;28;20188;-67
2022/10/20 10:38:55;;;;;;;4.72;3.42;;;;;;;17.53;35.54;95569.00;5083150;28;20201;-68
2022/10/20 10:41:35;;;;;;;3.38;3.05;;;;;;;17.63;35.40;95564.25;5087115;28;20188;-68
2022/10/20 10:44:09;;;;;;;4.45;3.22;;;;;;;17.74;34.35;95554.16;5092380;28;20275;-66
2022/10/20 10:47:04;;;;;;;5.05;3.58;;;;;;;17.98;34.46;95566.41;5086043;28;20203;-65
2022/10/20 10:49:45;;;;;;;5.97;3.38;;;;;;;18.14;34.16;95566.19;5011802;28;20185;-65
2022/10/20 10:52:25;;;;;;;8.52;3.70;;;;;;;18.35;33.16;95560.13;5009017;28;20197;-66
2022/10/20 10:55:04;;;;;;;4.20;3.38;;;;;;;18.52;33.22;95564.22;5033523;28;20194;-66
2022/10/20 10:57:59;;;;;;;3.90;3.50;;;;;;;18.47;32.52;95561.28;5013277;28;20224;-66
2022/10/20 11:00:36;;;;;;;4.20;3.72;;;;;;;18.50;33.09;95560.91;5007348;28;20230;-67
2022/10/20 11:03:07;;;;;;;4.30;3.88;;;;;;;18.55;33.02;95555.03;5006024;28;20214;-66
2022/10/20 11:05:53;;;;;;;5.80;3.38;;;;;;;18.52;32.54;95552.72;5031529;28;20190;-68
2022/10/20 11:08:24;;;;;;;4.05;3.47;;;;;;;18.50;32.47;95552.94;5012672;28;20221;-68
2022/10/20 11:11:08;;;;;;;4.20;3.47;;;;;;;18.64;32.24;95537.09;5012808;28;20182;-68
2022/10/20 11:13:47;;;;;;;3.75;3.45;;;;;;;18.73;32.83;95541.28;5009338;28;20225;-68
2022/10/20 11:16:30;;;;;;;3.55;3.25;;;;;;;18.89;32.50;95549.03;5015489;28;20189;-65
2022/10/20 11:19:14;;;;;;;4.82;3.83;;;;;;;18.84;32.52;95535.47;5033671;28;20201;-65
2022/10/20 11:22:05;;;;;;;3.30;3.00;;;;;;;18.97;32.30;95532.09;5031330;28;20232;-65
2022/10/20 11:24:58;;;;;;;3.53;3.25;;;;;;;19.06;31.84;95540.78;5022988;28;20269;-65
2022/10/20 11:27:32;;;;;;;3.95;3.30;;;;;;;19.17;31.62;95529.63;5075848;28;20252;-65
2022/10/20 11:30:15;;;;;;;3.97;3.08;;;;;;;19.41;30.96;95514.22;5081192;28;20197;-65
2022/10/20 11:33:21;;;;;;;6.20;3.55;;;;;;;19.65;30.99;95527.09;5080608;28;20192;-62